createdAt,value
2022-12-11T00:02:37.523Z,5.43
2022-12-11T00:06:24.921Z,5.78
2022-12-11T00:10:07.938Z,5.87
2022-12-11T00:13:52.856Z,7.80
2022-12-11T00:17:15.316Z,7.25
2022-12-11T00:20:46.980Z,6.78
2022-12-11T00:24:09.866Z,6.47
2022-12-11T00:27:35.256Z,6.87
2022-12-11T00:30:55.713Z,6.57
2022-12-11T00:34:20.552Z,6.87
2022-12-11T00:37:31.466Z,7.68
2022-12-11T00:40:59.319Z,6.28
2022-12-11T00:44:24.622Z,7.97
2022-12-11T00:47:58.009Z,6.47
2022-12-11T00:51:20.562Z,7.32
2022-12-11T00:55:00.469Z,6.40
2022-12-11T00:58:45.132Z,6.18
2022-12-11T01:02:27.988Z,7.18
2022-12-11T01:05:40.959Z,6.30
2022-12-11T01:09:59.504Z,7.22
2022-12-11T01:13:22.530Z,5.85
2022-12-11T01:17:05.856Z,4.97
2022-12-11T01:20:28.998Z,6.65
2022-12-11T01:24:12.084Z,6.50
2022-12-11T01:27:18.713Z,5.65
2022-12-11T01:30:46.749Z,4.28
2022-12-11T01:34:08.455Z,5.18
2022-12-11T01:37:31.833Z,5.55
2022-12-11T01:41:14.701Z,4.47
2022-12-11T01:44:21.576Z,5.97
2022-12-11T01:47:44.529Z,5.80
2022-12-11T01:51:07.617Z,6.80
2022-12-11T01:54:51.416Z,6.28
2022-12-11T01:58:17.862Z,6.47
2022-12-11T02:01:45.211Z,5.97
2022-12-11T02:04:54.816Z,6.05
2022-12-11T02:08:34.308Z,7.07
2022-12-11T02:12:29.300Z,7.05
2022-12-11T02:16:24.052Z,8.18
2022-12-11T02:20:21.759Z,7.12
2022-12-11T02:24:10.065Z,6.85
2022-12-11T02:27:56.683Z,7.62
2022-12-11T02:31:26.733Z,7.55
2022-12-11T02:35:17.281Z,6.87
2022-12-11T02:39:02.712Z,7.93
2022-12-11T02:43:10.436Z,6.82
2022-12-11T02:46:54.111Z,5.28
2022-12-11T02:50:50.433Z,7.60
2022-12-11T02:54:38.094Z,8.00
2022-12-11T02:58:59.558Z,7.43
2022-12-11T03:02:51.826Z,8.50
2022-12-11T03:06:42.485Z,8.55
2022-12-11T03:10:25.233Z,9.20
2022-12-11T03:14:09.038Z,8.68
2022-12-11T03:17:59.038Z,8.10
2022-12-11T03:22:16.178Z,8.40
2022-12-11T03:26:05.110Z,6.68
2022-12-11T03:30:15.351Z,9.00
2022-12-11T03:33:43.205Z,6.72
2022-12-11T03:37:49.210Z,8.60
2022-12-11T03:41:35.660Z,8.30
2022-12-11T03:45:20.858Z,7.85
2022-12-11T03:48:36.169Z,8.00
2022-12-11T03:52:20.794Z,6.65
2022-12-11T03:56:06.927Z,7.97
2022-12-11T04:00:15.709Z,4.60
2022-12-11T04:03:47.380Z,8.55
2022-12-11T04:07:13.805Z,5.78
2022-12-11T04:11:34.649Z,6.32
2022-12-11T04:15:03.060Z,7.80
2022-12-11T04:19:25.033Z,7.65
2022-12-11T04:23:35.933Z,6.12
2022-12-11T04:27:50.835Z,5.15
2022-12-11T04:31:33.617Z,7.55
2022-12-11T04:35:17.532Z,13.10
2022-12-11T04:39:00.216Z,10.43
2022-12-11T04:42:43.613Z,12.25
2022-12-11T04:46:13.472Z,5.28
2022-12-11T04:49:36.756Z,4.32
2022-12-11T04:52:59.629Z,6.12
2022-12-11T04:57:02.524Z,6.00
2022-12-11T05:00:27.272Z,5.18
2022-12-11T05:04:10.250Z,6.95
2022-12-11T05:07:53.008Z,6.03
2022-12-11T05:11:56.232Z,6.87
2022-12-11T05:15:24.137Z,5.47
2022-12-11T05:19:27.642Z,5.32
2022-12-11T05:23:11.974Z,6.47
2022-12-11T05:26:40.254Z,3.83
2022-12-11T05:30:19.831Z,5.35
2022-12-11T05:34:06.778Z,5.35
2022-12-11T05:37:49.258Z,6.25
2022-12-11T05:41:06.019Z,5.30
2022-12-11T05:44:28.720Z,5.55
2022-12-11T05:47:36.824Z,5.05
2022-12-11T05:51:16.163Z,6.00
2022-12-11T05:55:15.741Z,6.07
2022-12-11T05:58:59.849Z,4.20
2022-12-11T06:02:57.740Z,5.55
2022-12-11T06:07:00.590Z,5.55
2022-12-11T06:10:50.588Z,5.40
2022-12-11T06:14:48.689Z,4.70
2022-12-11T06:18:32.591Z,5.62
2022-12-11T06:22:21.542Z,4.53
2022-12-11T06:25:55.669Z,5.20
2022-12-11T06:33:24.631Z,5.70
2022-12-11T06:37:11.101Z,5.78
2022-12-11T06:40:46.597Z,6.22
2022-12-11T06:44:30.541Z,4.97
2022-12-11T06:48:00.701Z,5.07
2022-12-11T06:51:44.582Z,4.55
2022-12-11T06:54:54.016Z,4.68
2022-12-11T06:58:25.463Z,5.57
2022-12-11T07:01:47.543Z,5.30
2022-12-11T07:24:10.606Z,5.45
2022-12-11T07:27:42.177Z,5.28
2022-12-11T07:30:45.099Z,5.12
2022-12-11T07:33:48.305Z,5.68
2022-12-11T07:36:51.129Z,5.55
2022-12-11T07:39:54.264Z,5.05
2022-12-11T07:42:56.943Z,3.58
2022-12-11T07:46:05.626Z,4.12
2022-12-11T07:49:08.426Z,4.72
2022-12-11T07:52:13.695Z,3.97
2022-12-11T07:55:25.747Z,4.10
2022-12-11T07:58:40.272Z,4.22
2022-12-11T08:01:43.428Z,3.75
2022-12-11T08:04:58.378Z,4.70
2022-12-11T08:08:05.681Z,3.70
2022-12-11T08:11:16.831Z,4.32
2022-12-11T08:14:25.680Z,3.85
2022-12-11T08:17:38.367Z,3.70
2022-12-11T08:20:51.556Z,4.80
2022-12-11T08:23:59.074Z,4.72
2022-12-11T08:27:06.668Z,4.32
2022-12-11T08:30:15.895Z,3.85
2022-12-11T08:33:28.964Z,3.97
2022-12-11T08:36:36.109Z,4.12
2022-12-11T08:39:48.476Z,5.28
2022-12-11T08:43:02.593Z,4.57
2022-12-11T08:46:17.090Z,4.37
2022-12-11T08:49:28.623Z,4.10
2022-12-11T08:52:43.070Z,3.87
2022-12-11T08:55:54.446Z,4.03
2022-12-11T08:59:06.362Z,4.05
2022-12-11T09:02:13.536Z,4.12
2022-12-11T09:05:20.131Z,4.37
2022-12-11T09:08:31.344Z,4.47
2022-12-11T09:11:51.334Z,3.22
2022-12-11T09:14:54.607Z,4.32
2022-12-11T09:18:07.075Z,3.70
2022-12-11T09:21:34.080Z,4.10
2022-12-11T09:24:46.380Z,4.50
2022-12-11T09:27:59.945Z,4.65
2022-12-11T09:31:13.637Z,4.07
2022-12-11T09:34:40.748Z,4.20
2022-12-11T09:38:03.622Z,4.95
2022-12-11T09:41:22.925Z,5.03
2022-12-11T09:44:31.466Z,4.95
2022-12-11T09:47:42.714Z,4.15
2022-12-11T09:50:54.019Z,4.12
2022-12-11T09:54:06.813Z,4.55
2022-12-11T09:57:24.967Z,4.03
2022-12-11T10:01:00.189Z,3.42
2022-12-11T10:04:45.487Z,4.85
2022-12-11T10:08:25.680Z,4.72
2022-12-11T10:11:40.201Z,4.18
2022-12-11T10:15:20.917Z,5.12
2022-12-11T10:18:31.387Z,4.85
2022-12-11T10:21:45.548Z,4.50
2022-12-11T10:25:11.578Z,3.67
2022-12-11T10:28:21.355Z,3.60
2022-12-11T10:31:43.216Z,4.75
2022-12-11T10:35:06.926Z,5.20
2022-12-11T10:39:19.059Z,5.10
2022-12-11T10:42:22.972Z,4.60
2022-12-11T10:45:30.000Z,5.90
2022-12-11T10:48:46.081Z,4.55
2022-12-11T10:52:01.553Z,3.17
2022-12-11T10:55:28.373Z,4.87
2022-12-11T10:58:50.002Z,4.15
2022-12-11T11:01:54.836Z,4.03
2022-12-11T11:05:27.311Z,3.97
2022-12-11T11:08:57.270Z,4.00
2022-12-11T11:12:27.844Z,4.15
2022-12-11T11:16:15.580Z,4.20
2022-12-11T11:19:38.748Z,4.12
2022-12-11T11:22:55.320Z,3.97
2022-12-11T11:26:19.511Z,3.83
2022-12-11T11:30:01.377Z,4.53
2022-12-11T11:33:59.210Z,3.40
2022-12-11T11:37:06.043Z,3.25
2022-12-11T11:40:28.770Z,4.43
2022-12-11T11:43:46.634Z,4.07
2022-12-11T11:47:13.360Z,4.82
2022-12-11T11:53:37.412Z,3.47
2022-12-11T11:56:40.149Z,3.12
2022-12-11T11:59:57.187Z,4.20
2022-12-11T12:03:21.578Z,4.35
2022-12-11T12:06:55.883Z,3.67
2022-12-11T12:10:15.060Z,4.60
2022-12-11T12:13:49.231Z,3.85
2022-12-11T12:17:14.309Z,4.23
2022-12-11T12:20:48.246Z,3.70
2022-12-11T12:24:19.512Z,3.90
2022-12-11T12:27:53.323Z,3.85
2022-12-11T12:31:25.895Z,4.28
2022-12-11T12:34:29.432Z,3.40
2022-12-11T12:38:20.070Z,4.60
2022-12-11T12:41:52.979Z,4.20
2022-12-11T12:45:17.260Z,3.90
2022-12-11T12:49:02.559Z,4.15
2022-12-11T12:52:12.312Z,4.47
2022-12-11T12:59:04.143Z,3.85
2022-12-11T13:13:12.139Z,4.55
2022-12-11T13:24:24.113Z,4.62
2022-12-11T13:27:46.266Z,4.00
2022-12-11T13:31:08.153Z,3.65
2022-12-11T13:34:55.687Z,4.53
2022-12-11T13:38:21.313Z,4.70
2022-12-11T13:41:47.645Z,5.30
2022-12-11T13:45:53.166Z,4.35
2022-12-11T13:49:43.132Z,5.05
2022-12-11T13:53:46.424Z,4.18
2022-12-11T13:57:00.647Z,4.10
2022-12-11T14:00:04.460Z,4.95
2022-12-11T14:03:34.402Z,4.10
2022-12-11T14:06:58.862Z,4.57
2022-12-11T14:10:25.938Z,3.75
2022-12-11T14:13:40.555Z,4.22
2022-12-11T14:17:23.347Z,6.25
2022-12-11T14:20:34.128Z,4.15
2022-12-11T14:24:19.019Z,5.43
2022-12-11T14:27:48.891Z,5.53
2022-12-11T14:30:59.330Z,4.68
2022-12-11T14:34:36.483Z,4.22
2022-12-11T14:49:29.328Z,4.70
2022-12-11T14:53:01.410Z,6.03
2022-12-11T14:56:07.636Z,4.07
2022-12-11T14:59:20.491Z,4.75
2022-12-11T15:02:27.413Z,5.45
2022-12-11T15:05:38.888Z,4.80
2022-12-11T15:24:37.312Z,5.93
2022-12-11T15:27:45.382Z,5.07
2022-12-11T15:31:00.371Z,4.87
2022-12-11T15:34:04.735Z,4.07
2022-12-11T15:37:31.860Z,5.20
2022-12-11T15:40:40.086Z,4.10
2022-12-11T15:43:47.699Z,5.53
2022-12-11T15:46:54.493Z,6.78
2022-12-11T15:50:00.885Z,6.82
2022-12-11T15:53:06.063Z,7.03
2022-12-11T15:56:15.196Z,6.80
2022-12-11T15:59:19.162Z,7.60
2022-12-11T16:02:24.451Z,6.20
2022-12-11T16:05:27.853Z,7.43
2022-12-11T16:08:30.901Z,6.03
2022-12-11T16:11:34.378Z,6.25
2022-12-11T16:14:39.265Z,6.82
2022-12-11T16:17:42.380Z,5.05
2022-12-11T16:28:18.266Z,4.70
2022-12-11T16:31:22.261Z,6.22
2022-12-11T16:34:27.163Z,4.93
2022-12-11T16:37:39.194Z,6.68
2022-12-11T16:40:42.429Z,5.12
2022-12-11T16:44:01.173Z,6.40
2022-12-11T16:47:09.031Z,6.12
2022-12-11T16:50:16.116Z,6.57
2022-12-11T16:53:19.012Z,7.85
2022-12-11T16:56:24.957Z,7.18
2022-12-11T16:59:37.256Z,7.07
2022-12-11T17:02:49.302Z,5.93
2022-12-11T17:05:52.473Z,7.18
2022-12-11T19:27:13.041Z,5.60
2022-12-11T19:30:16.641Z,6.97
2022-12-11T19:33:22.010Z,7.50
2022-12-11T19:36:26.933Z,7.20
2022-12-11T19:39:29.762Z,6.10
2022-12-11T19:42:45.824Z,6.47
2022-12-11T20:50:34.543Z,6.22
